Time;durP1;ratioP1;P1;durP2;ratioP2;P2;SDS_P1;SDS_P2;PMS_P1;PMS_P2;Temp;Humidity;BMP_temperature;BMP_pressure;BME280_temperature;BME280_humidity;BME280_pressure;Samples;Min_cycle;Max_cycle;Signal;HPM_P1;HPM_P2
2021/04/04 00:02:15;;;;;;;12.18;6.05;;;;;;;;;;5036942;28;20240;-81
2021/04/04 00:04:42;;;;;;;14.20;6.22;;;;;;;;;;5036683;28;20217;-82
2021/04/04 00:07:09;;;;;;;12.70;4.78;;;;;;;;;;5037559;28;20605;-82
2021/04/04 00:09:36;;;;;;;14.15;7.00;;;;;;;;;;5038945;28;20213;-82
2021/04/04 00:12:04;;;;;;;10.82;5.75;;;;;;;;;;5037115;28;20183;-81
2021/04/04 00:14:31;;;;;;;10.35;5.45;;;;;;;;;;5036999;28;20190;-81
2021/04/04 00:16:59;;;;;;;14.80;5.18;;;;;;;;;;5037398;28;20557;-82
2021/04/04 00:19:26;;;;;;;17.58;5.40;;;;;;;;;;5037032;28;20198;-81
2021/04/04 00:21:52;;;;;;;11.80;6.00;;;;;;;;;;5034488;28;20191;-82
2021/04/04 00:24:19;;;;;;;21.27;6.15;;;;;;;;;;5037543;28;20191;-82
2021/04/04 00:26:46;;;;;;;14.10;5.60;;;;;;;;;;5037398;28;20237;-81
2021/04/04 00:29:14;;;;;;;12.63;5.70;;;;;;;;;;5034379;28;20194;-81
2021/04/04 00:31:41;;;;;;;11.77;5.60;;;;;;;;;;5035728;28;20272;-81
2021/04/04 00:34:09;;;;;;;11.32;5.32;;;;;;;;;;5032621;28;20202;-81
2021/04/04 00:36:36;;;;;;;11.73;6.20;;;;;;;;;;5032261;28;20261;-80
2021/04/04 00:39:07;;;;;;;14.35;6.65;;;;;;;;;;5032067;28;20215;-80
2021/04/04 00:41:35;;;;;;;12.65;5.28;;;;;;;;;;5030365;28;20225;-81
2021/04/04 00:44:02;;;;;;;18.23;6.22;;;;;;;;;;5033024;28;20248;-80
2021/04/04 00:46:29;;;;;;;11.55;5.70;;;;;;;;;;5031688;28;20220;-81
2021/04/04 00:48:56;;;;;;;11.25;5.20;;;;;;;;;;5031720;28;20222;-81
2021/04/04 00:51:24;;;;;;;15.32;6.38;;;;;;;;;;5030756;28;20205;-80
2021/04/04 00:53:52;;;;;;;12.32;6.07;;;;;;;;;;5032363;28;20680;-80
2021/04/04 00:56:19;;;;;;;9.95;5.85;;;;;;;;;;5036448;28;20191;-80
2021/04/04 00:58:45;;;;;;;13.02;5.35;;;;;;;;;;5035783;28;20627;-79
2021/04/04 01:01:12;;;;;;;12.82;5.57;;;;;;;;;;5035213;28;20191;-79
2021/04/04 01:03:40;;;;;;;14.07;5.95;;;;;;;;;;5035269;28;20190;-80
2021/04/04 01:06:08;;;;;;;17.13;8.43;;;;;;;;;;5034638;28;20215;-80
2021/04/04 01:08:36;;;;;;;16.10;6.25;;;;;;;;;;5034456;28;20226;-79
2021/04/04 01:11:04;;;;;;;11.90;5.88;;;;;;;;;;5034912;28;20277;-80
2021/04/04 01:13:39;;;;;;;14.40;6.50;;;;;;;;;;5034945;28;20201;-80
2021/04/04 01:16:10;;;;;;;14.68;5.85;;;;;;;;;;5034272;28;20236;-80
2021/04/04 01:18:41;;;;;;;11.20;5.30;;;;;;;;;;5034873;28;20219;-79
2021/04/04 01:21:13;;;;;;;14.90;5.03;;;;;;;;;;5035162;28;20557;-80
2021/04/04 01:24:13;;;;;;;9.68;5.63;;;;;;;;;;5035646;28;20206;-79
2021/04/04 01:26:50;;;;;;;17.20;6.57;;;;;;;;;;5035576;28;20642;-79
2021/04/04 01:29:18;;;;;;;14.40;6.15;;;;;;;;;;5035596;28;20225;-79
2021/04/04 01:31:46;;;;;;;10.35;5.80;;;;;;;;;;5035614;28;20198;-79
2021/04/04 01:34:15;;;;;;;13.23;6.35;;;;;;;;;;5035305;28;20210;-79
2021/04/04 01:36:42;;;;;;;12.23;5.30;;;;;;;;;;5035431;28;20209;-80
2021/04/04 01:39:11;;;;;;;17.90;6.63;;;;;;;;;;5035013;28;20202;-79
2021/04/04 01:41:40;;;;;;;13.25;5.80;;;;;;;;;;5035377;28;20260;-80
2021/04/04 01:44:11;;;;;;;13.68;5.95;;;;;;;;;;5036031;28;20272;-79
2021/04/04 01:46:40;;;;;;;11.63;5.38;;;;;;;;;;5035472;28;20218;-80
2021/04/04 01:49:07;;;;;;;14.82;4.88;;;;;;;;;;5035742;28;20194;-79
2021/04/04 01:51:36;;;;;;;16.33;6.22;;;;;;;;;;5035902;28;20203;-79
2021/04/04 01:54:07;;;;;;;12.75;5.35;;;;;;;;;;5035575;28;20202;-80
2021/04/04 01:56:34;;;;;;;9.07;5.32;;;;;;;;;;5035228;28;20726;-79
2021/04/04 01:59:01;;;;;;;15.70;5.85;;;;;;;;;;5035174;28;20221;-80
2021/04/04 02:01:28;;;;;;;12.20;5.65;;;;;;;;;;5035139;28;20226;-79
2021/04/04 02:04:00;;;;;;;11.57;6.22;;;;;;;;;;5035576;28;20202;-79
2021/04/04 02:06:27;;;;;;;15.55;6.57;;;;;;;;;;5034777;28;20222;-79
2021/04/04 02:08:55;;;;;;;9.35;5.15;;;;;;;;;;5035044;28;20452;-79
2021/04/04 02:11:25;;;;;;;22.70;7.35;;;;;;;;;;5035223;28;20202;-79
2021/04/04 02:13:53;;;;;;;15.88;5.95;;;;;;;;;;5034784;28;20614;-80
2021/04/04 02:16:21;;;;;;;12.27;6.55;;;;;;;;;;5034909;28;20396;-80
2021/04/04 02:18:48;;;;;;;13.10;5.65;;;;;;;;;;5034318;28;20280;-80
2021/04/04 02:21:16;;;;;;;15.88;6.03;;;;;;;;;;5034099;28;20206;-80
2021/04/04 02:23:43;;;;;;;11.02;5.53;;;;;;;;;;5034522;28;20217;-79
2021/04/04 02:26:10;;;;;;;11.43;5.40;;;;;;;;;;5034489;28;20226;-80
2021/04/04 02:28:37;;;;;;;18.10;7.32;;;;;;;;;;5034439;28;20229;-80
2021/04/04 02:31:05;;;;;;;15.60;6.05;;;;;;;;;;5034642;28;20213;-79
2021/04/04 02:33:36;;;;;;;12.38;5.32;;;;;;;;;;5033985;28;20210;-79
2021/04/04 02:36:09;;;;;;;14.00;5.95;;;;;;;;;;5034769;28;20204;-79
2021/04/04 02:38:39;;;;;;;11.57;5.82;;;;;;;;;;5034471;28;20241;-80
2021/04/04 02:41:08;;;;;;;10.95;4.85;;;;;;;;;;5034648;28;20187;-80
2021/04/04 02:43:38;;;;;;;10.25;5.85;;;;;;;;;;5034320;28;20229;-79
2021/04/04 02:46:08;;;;;;;14.65;5.50;;;;;;;;;;5034028;28;20704;-79
2021/04/04 02:48:41;;;;;;;11.90;5.35;;;;;;;;;;5034125;28;20793;-80
2021/04/04 02:51:12;;;;;;;14.40;6.00;;;;;;;;;;5034240;28;20198;-80
2021/04/04 02:53:46;;;;;;;10.77;5.68;;;;;;;;;;5034366;28;20187;-80
2021/04/04 02:56:15;;;;;;;10.93;5.93;;;;;;;;;;5034216;28;20248;-80
2021/04/04 02:58:43;;;;;;;16.05;6.03;;;;;;;;;;5033944;28;20614;-79
2021/04/04 03:01:12;;;;;;;11.95;5.10;;;;;;;;;;5034506;28;20264;-80
2021/04/04 03:03:39;;;;;;;15.82;6.00;;;;;;;;;;5034486;28;20202;-79
2021/04/04 03:06:08;;;;;;;15.45;6.50;;;;;;;;;;5034276;28;20214;-79
2021/04/04 03:08:38;;;;;;;12.95;5.28;;;;;;;;;;5033904;28;20238;-79
2021/04/04 03:11:06;;;;;;;17.92;6.22;;;;;;;;;;5034103;28;20202;-80
2021/04/04 03:13:34;;;;;;;11.45;4.90;;;;;;;;;;5034837;28;20256;-79
2021/04/04 03:16:01;;;;;;;10.20;6.00;;;;;;;;;;5034195;28;20202;-79
2021/04/04 03:18:29;;;;;;;11.70;5.72;;;;;;;;;;5033829;28;20229;-80
2021/04/04 03:20:57;;;;;;;13.50;5.90;;;;;;;;;;5033998;28;20210;-80
2021/04/04 03:23:25;;;;;;;15.35;6.55;;;;;;;;;;5034214;28;20202;-79
2021/04/04 03:25:54;;;;;;;12.82;6.43;;;;;;;;;;5034164;28;20225;-80
2021/04/04 03:28:22;;;;;;;16.80;5.85;;;;;;;;;;5034292;28;20230;-79
2021/04/04 03:30:50;;;;;;;12.32;5.88;;;;;;;;;;5034156;28;20698;-79
2021/04/04 03:33:19;;;;;;;12.65;5.97;;;;;;;;;;5034465;28;20554;-79
2021/04/04 03:35:48;;;;;;;9.45;5.55;;;;;;;;;;5034165;28;20213;-79
2021/04/04 03:38:17;;;;;;;17.15;7.32;;;;;;;;;;5035002;28;20268;-79
2021/04/04 03:40:44;;;;;;;14.90;6.15;;;;;;;;;;5026835;28;20214;-80
2021/04/04 03:43:15;;;;;;;15.05;6.90;;;;;;;;;;5033698;28;20573;-80
2021/04/04 03:45:43;;;;;;;16.10;6.70;;;;;;;;;;5034203;28;20186;-80
2021/04/04 03:48:10;;;;;;;13.50;5.35;;;;;;;;;;5034027;28;20598;-79
2021/04/04 03:50:38;;;;;;;14.85;5.97;;;;;;;;;;5034207;28;20556;-80
2021/04/04 03:53:05;;;;;;;11.15;4.70;;;;;;;;;;5034117;28;20207;-80
2021/04/04 03:55:33;;;;;;;15.90;6.38;;;;;;;;;;5033947;28;20278;-79
2021/04/04 03:58:00;;;;;;;17.00;6.45;;;;;;;;;;5034033;28;20272;-79
2021/04/04 04:00:30;;;;;;;12.70;5.63;;;;;;;;;;5034345;28;20207;-79
2021/04/04 04:02:57;;;;;;;18.83;5.45;;;;;;;;;;5033958;28;20202;-80
2021/04/04 04:05:25;;;;;;;7.15;4.78;;;;;;;;;;5033912;28;20228;-79
2021/04/04 04:07:52;;;;;;;10.93;4.85;;;;;;;;;;5033836;28;20611;-79
2021/04/04 04:10:19;;;;;;;11.90;5.18;;;;;;;;;;5034476;28;20199;-80
2021/04/04 04:12:48;;;;;;;12.55;6.82;;;;;;;;;;5034174;28;20271;-79
2021/04/04 04:15:15;;;;;;;12.02;5.75;;;;;;;;;;5033995;28;20210;-79
2021/04/04 04:17:44;;;;;;;9.15;4.25;;;;;;;;;;5034790;28;20222;-79
2021/04/04 04:20:13;;;;;;;11.60;4.88;;;;;;;;;;5034138;28;20275;-80
2021/04/04 04:22:41;;;;;;;11.55;4.80;;;;;;;;;;5034383;28;20317;-80
2021/04/04 04:25:10;;;;;;;12.52;5.60;;;;;;;;;;5034146;28;20214;-80
2021/04/04 04:27:38;;;;;;;15.80;5.28;;;;;;;;;;5034984;28;20253;-80
2021/04/04 04:30:07;;;;;;;13.32;5.65;;;;;;;;;;5037647;28;20206;-80
2021/04/04 04:32:37;;;;;;;12.77;6.10;;;;;;;;;;5038839;28;20732;-79
2021/04/04 04:35:07;;;;;;;13.02;5.25;;;;;;;;;;5038600;28;20203;-79
2021/04/04 04:37:36;;;;;;;13.45;6.00;;;;;;;;;;5038498;28;20574;-79
2021/04/04 04:40:10;;;;;;;12.10;5.50;;;;;;;;;;5038901;28;20660;-80
2021/04/04 04:42:41;;;;;;;10.32;5.15;;;;;;;;;;5038967;28;20206;-80
2021/04/04 04:45:16;;;;;;;13.95;5.03;;;;;;;;;;5038952;28;20232;-79
2021/04/04 04:47:43;;;;;;;10.20;5.65;;;;;;;;;;5038626;28;20225;-79
2021/04/04 04:50:12;;;;;;;12.88;4.95;;;;;;;;;;5038004;28;20571;-79
2021/04/04 04:52:39;;;;;;;14.35;5.60;;;;;;;;;;5038690;28;20202;-80
2021/04/04 04:55:09;;;;;;;14.32;4.68;;;;;;;;;;5039294;28;20694;-79
2021/04/04 04:57:36;;;;;;;9.13;4.32;;;;;;;;;;5038661;28;20226;-80
2021/04/04 05:00:07;;;;;;;14.25;4.95;;;;;;;;;;5039203;28;20210;-80
2021/04/04 05:02:35;;;;;;;11.70;5.68;;;;;;;;;;5038097;28;20801;-80
2021/04/04 05:05:02;;;;;;;12.23;4.53;;;;;;;;;;5038521;28;20202;-79
2021/04/04 05:07:30;;;;;;;16.60;6.82;;;;;;;;;;5038721;28;20739;-79
2021/04/04 05:09:58;;;;;;;18.20;5.78;;;;;;;;;;5038877;28;20245;-79
2021/04/04 05:12:26;;;;;;;22.17;5.22;;;;;;;;;;5039042;28;20209;-80
2021/04/04 05:14:54;;;;;;;7.57;3.25;;;;;;;;;;5037397;28;20217;-80
2021/04/04 05:17:21;;;;;;;9.40;4.22;;;;;;;;;;5037874;28;20248;-80
2021/04/04 05:19:49;;;;;;;12.07;4.30;;;;;;;;;;5036926;28;20209;-80
2021/04/04 05:22:16;;;;;;;8.23;4.03;;;;;;;;;;5037826;28;20194;-80
2021/04/04 05:24:44;;;;;;;8.00;4.03;;;;;;;;;;5037218;28;20179;-80
2021/04/04 05:27:12;;;;;;;13.65;4.93;;;;;;;;;;5036989;28;20230;-80
2021/04/04 05:29:39;;;;;;;17.95;4.43;;;;;;;;;;5036524;28;20213;-80
2021/04/04 05:32:06;;;;;;;9.25;5.38;;;;;;;;;;5037444;28;20191;-80
2021/04/04 05:34:39;;;;;;;12.35;5.78;;;;;;;;;;5036202;28;20199;-80
2021/04/04 05:37:08;;;;;;;8.32;3.88;;;;;;;;;;5037367;28;20309;-80
2021/04/04 05:39:38;;;;;;;8.85;4.57;;;;;;;;;;5037352;28;20201;-80
2021/04/04 05:42:06;;;;;;;12.77;4.28;;;;;;;;;;5036254;28;20183;-80
2021/04/04 05:44:40;;;;;;;13.05;4.03;;;;;;;;;;5037594;28;20199;-80
2021/04/04 05:47:15;;;;;;;11.70;3.97;;;;;;;;;;5037135;28;20699;-80
2021/04/04 05:49:54;;;;;;;10.52;4.13;;;;;;;;;;5037621;28;20202;-81
2021/04/04 05:52:30;;;;;;;9.73;4.05;;;;;;;;;;5036794;28;20244;-81
2021/04/04 05:55:18;;;;;;;10.85;5.32;;;;;;;;;;5037440;28;20217;-80
2021/04/04 05:57:53;;;;;;;8.15;4.25;;;;;;;;;;5037137;28;20381;-81
2021/04/04 06:00:22;;;;;;;13.25;4.85;;;;;;;;;;5037524;28;20206;-80
2021/04/04 06:03:35;;;;;;;8.57;4.22;;;;;;;;;;5037083;28;20190;-80
2021/04/04 06:06:47;;;;;;;7.82;3.55;;;;;;;;;;5037379;28;20672;-80
2021/04/04 06:09:50;;;;;;;7.95;3.85;;;;;;;;;;5017596;28;20684;-80
2021/04/04 06:12:28;;;;;;;12.07;4.95;;;;;;;;;;5017268;28;20211;-80
2021/04/04 06:15:08;;;;;;;9.95;4.18;;;;;;;;;;5017262;28;20298;-80
2021/04/04 06:17:38;;;;;;;7.80;4.38;;;;;;;;;;5017172;28;20696;-81
2021/04/04 06:20:14;;;;;;;12.73;4.65;;;;;;;;;;5016958;28;20214;-80
2021/04/04 06:22:53;;;;;;;8.15;4.35;;;;;;;;;;5017369;28;20198;-81
2021/04/04 06:25:30;;;;;;;7.72;3.78;;;;;;;;;;5017087;28;20190;-81
2021/04/04 06:28:08;;;;;;;10.68;4.57;;;;;;;;;;5016278;28;20257;-81
2021/04/04 06:30:50;;;;;;;9.30;3.72;;;;;;;;;;5017409;28;20206;-81
2021/04/04 06:33:24;;;;;;;10.35;4.18;;;;;;;;;;5017204;28;20214;-80
2021/04/04 06:36:06;;;;;;;8.82;4.82;;;;;;;;;;5016954;28;20202;-80
2021/04/04 06:39:07;;;;;;;8.70;4.22;;;;;;;;;;5019541;28;20599;-80
2021/04/04 06:42:08;;;;;;;10.38;4.45;;;;;;;;;;5016798;28;20203;-80
2021/04/04 06:44:53;;;;;;;6.60;3.65;;;;;;;;;;5016346;28;20209;-80
2021/04/04 06:47:28;;;;;;;9.77;4.57;;;;;;;;;;5016653;28;20231;-80
2021/04/04 06:50:16;;;;;;;16.60;6.20;;;;;;;;;;5016906;28;20584;-80
2021/04/04 06:53:00;;;;;;;9.95;4.40;;;;;;;;;;5015635;28;20225;-80
2021/04/04 06:55:39;;;;;;;9.52;4.22;;;;;;;;;;5013945;28;20202;-80
2021/04/04 06:58:29;;;;;;;15.38;5.53;;;;;;;;;;5016789;28;20669;-80
2021/04/04 07:01:07;;;;;;;14.57;4.80;;;;;;;;;;5018836;28;20211;-80
2021/04/04 07:03:46;;;;;;;7.05;4.53;;;;;;;;;;5018160;28;20190;-80
2021/04/04 07:06:50;;;;;;;9.25;4.03;;;;;;;;;;5015899;28;20253;-80
2021/04/04 07:09:37;;;;;;;9.00;4.38;;;;;;;;;;5037863;28;20210;-80
2021/04/04 07:12:12;;;;;;;12.48;4.53;;;;;;;;;;5034498;28;20202;-80
2021/04/04 07:14:59;;;;;;;5.90;3.67;;;;;;;;;;5034791;28;20202;-80
2021/04/04 07:17:54;;;;;;;9.18;4.28;;;;;;;;;;5035244;28;20304;-80
2021/04/04 07:20:45;;;;;;;8.52;4.03;;;;;;;;;;5033651;28;20202;-80
2021/04/04 07:23:39;;;;;;;11.27;4.40;;;;;;;;;;5033857;28;20695;-80
2021/04/04 07:26:23;;;;;;;10.07;3.95;;;;;;;;;;5034235;28;20253;-80
2021/04/04 07:29:37;;;;;;;5.70;2.97;;;;;;;;;;5033678;28;20233;-80
2021/04/04 07:32:10;;;;;;;10.18;3.70;;;;;;;;;;4972786;28;20208;-80
2021/04/04 07:34:46;;;;;;;6.90;3.83;;;;;;;;;;5028687;28;20264;-80
2021/04/04 07:37:29;;;;;;;10.80;3.55;;;;;;;;;;5034390;28;20221;-80
2021/04/04 07:40:03;;;;;;;8.20;3.35;;;;;;;;;;5033920;28;20640;-80
2021/04/04 07:42:37;;;;;;;13.48;5.85;;;;;;;;;;5033664;28;20267;-80
2021/04/04 07:45:11;;;;;;;7.95;3.78;;;;;;;;;;5033332;28;20202;-80
2021/04/04 07:47:44;;;;;;;7.55;3.58;;;;;;;;;;5033976;28;20230;-80
2021/04/04 07:50:13;;;;;;;7.70;3.75;;;;;;;;;;5033480;28;20205;-80
2021/04/04 07:52:43;;;;;;;11.25;3.08;;;;;;;;;;5033693;28;20206;-80
2021/04/04 07:55:15;;;;;;;8.60;4.13;;;;;;;;;;5033952;28;20202;-80
2021/04/04 07:57:51;;;;;;;7.10;3.90;;;;;;;;;;5033616;28;20222;-80
2021/04/04 08:00:20;;;;;;;7.20;3.75;;;;;;;;;;5034309;28;20201;-80
2021/04/04 08:02:52;;;;;;;11.18;4.28;;;;;;;;;;5033723;28;20218;-80
2021/04/04 08:05:23;;;;;;;11.65;3.55;;;;;;;;;;5033368;28;20198;-81
2021/04/04 08:07:55;;;;;;;10.20;3.72;;;;;;;;;;5033581;28;20230;-80
2021/04/04 08:10:29;;;;;;;8.05;3.95;;;;;;;;;;5033842;28;20209;-80
2021/04/04 08:13:01;;;;;;;12.35;4.32;;;;;;;;;;5034191;28;20205;-80
2021/04/04 08:15:34;;;;;;;12.63;4.05;;;;;;;;;;5034154;28;20236;-80
2021/04/04 08:18:01;;;;;;;8.10;3.53;;;;;;;;;;5033739;28;20700;-80
2021/04/04 08:20:32;;;;;;;7.45;4.60;;;;;;;;;;5033240;28;20587;-80
2021/04/04 08:23:02;;;;;;;9.40;4.10;;;;;;;;;;5033462;28;20202;-80
2021/04/04 08:25:38;;;;;;;13.07;4.90;;;;;;;;;;5033468;28;20258;-80
2021/04/04 08:28:12;;;;;;;12.38;4.15;;;;;;;;;;5033177;28;20229;-80
2021/04/04 08:30:46;;;;;;;9.48;3.58;;;;;;;;;;5033406;28;20687;-80
2021/04/04 08:33:20;;;;;;;11.43;4.18;;;;;;;;;;5033516;28;20202;-80
2021/04/04 08:35:50;;;;;;;7.65;3.60;;;;;;;;;;5033153;28;20588;-80
2021/04/04 08:38:21;;;;;;;7.45;3.45;;;;;;;;;;5032864;28;20304;-80
2021/04/04 08:40:50;;;;;;;14.48;5.13;;;;;;;;;;5033021;28;20692;-80
2021/04/04 08:43:17;;;;;;;10.90;4.43;;;;;;;;;;5032773;28;20210;-80
2021/04/04 08:45:54;;;;;;;10.15;4.32;;;;;;;;;;5032668;28;20252;-80
2021/04/04 08:48:21;;;;;;;7.40;3.97;;;;;;;;;;5032924;28;20284;-80
2021/04/04 08:50:51;;;;;;;10.45;4.22;;;;;;;;;;5032678;28;20680;-80
2021/04/04 08:53:25;;;;;;;8.25;3.75;;;;;;;;;;5032977;28;20207;-80
2021/04/04 08:55:54;;;;;;;8.02;3.38;;;;;;;;;;5033188;28;20197;-80
2021/04/04 08:58:24;;;;;;;14.95;6.38;;;;;;;;;;5033859;28;20222;-80
2021/04/04 09:00:54;;;;;;;9.27;3.70;;;;;;;;;;5033968;28;20696;-80
2021/04/04 09:03:23;;;;;;;6.22;3.13;;;;;;;;;;5033414;28;20208;-80
2021/04/04 09:05:55;;;;;;;7.70;3.55;;;;;;;;;;5033883;28;20301;-80
2021/04/04 09:08:22;;;;;;;6.93;4.03;;;;;;;;;;5032487;28;20399;-80
2021/04/04 09:10:49;;;;;;;6.93;3.95;;;;;;;;;;5033916;28;20203;-80
2021/04/04 09:13:17;;;;;;;9.15;3.70;;;;;;;;;;5033627;28;20206;-80
2021/04/04 09:15:49;;;;;;;7.80;3.88;;;;;;;;;;5036002;28;20218;-81
2021/04/04 09:18:16;;;;;;;6.20;3.75;;;;;;;;;;5037070;28;20214;-80
2021/04/04 09:20:44;;;;;;;9.45;3.80;;;;;;;;;;5037084;28;20266;-80
2021/04/04 09:23:13;;;;;;;6.82;5.63;;;;;;;;;;5036669;28;20213;-80
2021/04/04 09:25:51;;;;;;;12.63;5.15;;;;;;;;;;5037353;28;20199;-80
2021/04/04 09:28:20;;;;;;;16.60;5.13;;;;;;;;;;5036444;28;20234;-80
2021/04/04 09:30:48;;;;;;;12.93;4.63;;;;;;;;;;5036857;28;20570;-81
2021/04/04 09:33:17;;;;;;;86.15;58.92;;;;;;;;;;5036774;28;20202;-80
2021/04/04 09:35:46;;;;;;;19.83;11.20;;;;;;;;;;5038335;28;20623;-80
2021/04/04 09:38:16;;;;;;;12.60;7.97;;;;;;;;;;5039865;28;20890;-81
2021/04/04 09:40:44;;;;;;;9.40;5.75;;;;;;;;;;5038035;28;20202;-81
2021/04/04 09:43:14;;;;;;;9.50;5.75;;;;;;;;;;5036475;28;20186;-80
2021/04/04 09:45:43;;;;;;;9.02;4.40;;;;;;;;;;5037091;28;20190;-81
2021/04/04 09:48:20;;;;;;;10.32;5.30;;;;;;;;;;5036651;28;20287;-80
2021/04/04 09:50:48;;;;;;;11.45;4.93;;;;;;;;;;5038177;28;20186;-81
2021/04/04 09:53:18;;;;;;;12.57;4.68;;;;;;;;;;5037766;28;20560;-81
2021/04/04 09:55:46;;;;;;;9.48;5.18;;;;;;;;;;5037010;28;20206;-80
2021/04/04 09:58:30;;;;;;;8.63;5.22;;;;;;;;;;5036774;28;20261;-81
2021/04/04 10:00:57;;;;;;;7.30;4.03;;;;;;;;;;5036917;28;20202;-81
2021/04/04 10:03:25;;;;;;;9.63;4.47;;;;;;;;;;5035733;28;20199;-81
2021/04/04 10:05:53;;;;;;;7.03;3.70;;;;;;;;;;5035226;28;20645;-80
2021/04/04 10:08:21;;;;;;;6.90;4.32;;;;;;;;;;5033577;28;20299;-81
2021/04/04 10:10:49;;;;;;;9.52;4.55;;;;;;;;;;5035169;28;20186;-80
2021/04/04 10:13:18;;;;;;;8.98;4.07;;;;;;;;;;5035010;28;20197;-80
2021/04/04 10:15:49;;;;;;;5.93;3.92;;;;;;;;;;5035837;28;20198;-81
2021/04/04 10:18:19;;;;;;;7.20;3.78;;;;;;;;;;5034527;28;20715;-79
2021/04/04 10:20:48;;;;;;;7.53;3.90;;;;;;;;;;5032207;28;20205;-80
2021/04/04 10:23:15;;;;;;;7.43;4.30;;;;;;;;;;5033878;28;20190;-81
2021/04/04 10:25:59;;;;;;;6.85;3.33;;;;;;;;;;5032376;28;20218;-80
2021/04/04 10:28:41;;;;;;;9.40;4.57;;;;;;;;;;5035027;28;20227;-81
2021/04/04 10:31:08;;;;;;;5.88;3.00;;;;;;;;;;5035109;28;20202;-81
2021/04/04 10:33:36;;;;;;;6.03;3.08;;;;;;;;;;5034402;28;20557;-81
2021/04/04 10:36:13;;;;;;;6.43;2.97;;;;;;;;;;5031454;28;20683;-80
2021/04/04 10:38:40;;;;;;;6.13;2.90;;;;;;;;;;5034259;28;20218;-80
2021/04/04 10:41:07;;;;;;;5.15;2.75;;;;;;;;;;5033726;28;20191;-80
2021/04/04 10:43:39;;;;;;;5.47;3.45;;;;;;;;;;5034565;28;20558;-80
2021/04/04 10:46:09;;;;;;;6.45;3.58;;;;;;;;;;5034619;28;20191;-80
2021/04/04 10:48:39;;;;;;;11.32;2.83;;;;;;;;;;5031944;28;20233;-80
2021/04/04 10:51:08;;;;;;;4.57;2.75;;;;;;;;;;5033979;28;20194;-81
2021/04/04 10:53:36;;;;;;;8.20;3.88;;;;;;;;;;5031449;28;20212;-81
2021/04/04 10:56:03;;;;;;;6.57;3.03;;;;;;;;;;5034139;28;20210;-81
2021/04/04 10:58:30;;;;;;;3.42;3.13;;;;;;;;;;5033884;28;20218;-80
2021/04/04 11:01:00;;;;;;;4.25;3.10;;;;;;;;;;5034082;28;20183;-80
2021/04/04 11:03:28;;;;;;;6.68;3.33;;;;;;;;;;5034087;28;20195;-81
2021/04/04 11:05:56;;;;;;;6.35;3.38;;;;;;;;;;5031910;28;20209;-81
2021/04/04 11:08:23;;;;;;;7.75;3.55;;;;;;;;;;5034304;28;20245;-80
2021/04/04 11:10:51;;;;;;;4.63;3.45;;;;;;;;;;5035350;28;20186;-80
2021/04/04 11:13:21;;;;;;;7.50;3.13;;;;;;;;;;5034957;28;20669;-80
2021/04/04 11:15:51;;;;;;;4.47;2.72;;;;;;;;;;5036916;28;20191;-80
2021/04/04 11:18:27;;;;;;;5.70;2.13;;;;;;;;;;5036305;28;20300;-79
2021/04/04 11:20:57;;;;;;;4.72;2.70;;;;;;;;;;5036258;28;20252;-79
2021/04/04 11:23:25;;;;;;;4.13;2.15;;;;;;;;;;5036371;28;20183;-80
2021/04/04 11:25:52;;;;;;;3.35;3.03;;;;;;;;;;5035753;28;20202;-80
2021/04/04 11:28:21;;;;;;;5.07;2.58;;;;;;;;;;5035628;28;20230;-79
2021/04/04 11:30:49;;;;;;;3.90;2.30;;;;;;;;;;5035629;28;20571;-81
2021/04/04 11:33:30;;;;;;;4.35;2.40;;;;;;;;;;5035340;28;20270;-80
2021/04/04 11:36:09;;;;;;;5.00;2.83;;;;;;;;;;5036722;28;20202;-79
2021/04/04 11:38:40;;;;;;;7.88;2.97;;;;;;;;;;5036341;28;20233;-80
2021/04/04 11:41:20;;;;;;;7.75;2.58;;;;;;;;;;5037148;28;20271;-79
2021/04/04 11:43:49;;;;;;;4.55;2.40;;;;;;;;;;5035423;28;20205;-79
2021/04/04 11:46:56;;;;;;;4.30;2.47;;;;;;;;;;5036543;28;20206;-80
2021/04/04 11:49:38;;;;;;;7.57;3.80;;;;;;;;;;5031555;28;20233;-79
2021/04/04 11:52:38;;;;;;;4.65;2.55;;;;;;;;;;5037034;28;20220;-79
2021/04/04 11:55:07;;;;;;;4.15;2.65;;;;;;;;;;5035968;28;20590;-81
2021/04/04 11:57:37;;;;;;;3.70;2.03;;;;;;;;;;5035306;28;20226;-80
2021/04/04 12:00:18;;;;;;;5.65;2.78;;;;;;;;;;5034347;28;20191;-79
2021/04/04 12:03:04;;;;;;;12.25;3.33;;;;;;;;;;5032500;28;20194;-79
2021/04/04 12:05:36;;;;;;;5.32;2.67;;;;;;;;;;5033283;28;20194;-79
2021/04/04 12:08:06;;;;;;;5.80;3.38;;;;;;;;;;5033468;28;20229;-80
2021/04/04 12:10:35;;;;;;;6.57;4.25;;;;;;;;;;5034621;28;20214;-79
2021/04/04 12:13:02;;;;;;;6.18;4.07;;;;;;;;;;5037320;28;20574;-79
2021/04/04 12:15:30;;;;;;;6.68;3.55;;;;;;;;;;5037499;28;20191;-80
2021/04/04 12:17:59;;;;;;;5.50;3.97;;;;;;;;;;5035084;28;20225;-81
2021/04/04 12:20:27;;;;;;;7.35;3.67;;;;;;;;;;5034621;28;20206;-80
2021/04/04 12:22:54;;;;;;;8.10;3.45;;;;;;;;;;5034433;28;20223;-79
2021/04/04 12:25:24;;;;;;;5.97;3.97;;;;;;;;;;5034889;28;20660;-80
2021/04/04 12:27:53;;;;;;;4.32;3.50;;;;;;;;;;5036843;28;20261;-80
2021/04/04 12:30:27;;;;;;;6.82;4.15;;;;;;;;;;5036683;28;20261;-80
2021/04/04 12:33:11;;;;;;;4.55;4.00;;;;;;;;;;5034491;28;20649;-79
2021/04/04 12:35:40;;;;;;;9.15;4.45;;;;;;;;;;5034692;28;20201;-80
2021/04/04 12:38:08;;;;;;;7.32;5.32;;;;;;;;;;5035315;28;20214;-80
2021/04/04 12:40:37;;;;;;;7.63;4.57;;;;;;;;;;5032926;28;20209;-80
2021/04/04 12:43:05;;;;;;;9.23;5.03;;;;;;;;;;5034808;28;20214;-79
2021/04/04 12:45:35;;;;;;;9.73;5.78;;;;;;;;;;5034842;28;20645;-79
2021/04/04 12:48:02;;;;;;;8.95;5.40;;;;;;;;;;5035704;28;20233;-80
2021/04/04 12:50:29;;;;;;;9.40;5.55;;;;;;;;;;5036228;28;20221;-80
2021/04/04 12:52:56;;;;;;;9.88;5.93;;;;;;;;;;5036692;28;20233;-79
2021/04/04 12:55:27;;;;;;;9.30;6.65;;;;;;;;;;5041197;28;20237;-79
2021/04/04 12:57:59;;;;;;;13.88;5.88;;;;;;;;;;5039609;28;20222;-80
2021/04/04 13:00:28;;;;;;;12.63;7.13;;;;;;;;;;5037771;28;20206;-80
2021/04/04 13:03:04;;;;;;;9.68;6.05;;;;;;;;;;5038440;28;20197;-79
2021/04/04 13:05:45;;;;;;;11.98;6.88;;;;;;;;;;5038929;28;20174;-80
2021/04/04 13:08:18;;;;;;;7.53;5.65;;;;;;;;;;5038816;28;20714;-79
2021/04/04 13:10:57;;;;;;;8.48;5.80;;;;;;;;;;5039002;28;20226;-80
2021/04/04 13:13:28;;;;;;;8.55;5.25;;;;;;;;;;5039563;28;20486;-80
2021/04/04 13:15:58;;;;;;;10.57;5.43;;;;;;;;;;5037776;28;20202;-81
2021/04/04 13:18:28;;;;;;;11.98;7.18;;;;;;;;;;5038634;28;20284;-81
2021/04/04 13:20:56;;;;;;;13.40;6.15;;;;;;;;;;5038264;28;20206;-80
2021/04/04 13:23:23;;;;;;;6.97;5.65;;;;;;;;;;5038385;28;20198;-80
2021/04/04 13:25:51;;;;;;;9.07;5.65;;;;;;;;;;5037852;28;20249;-79
2021/04/04 13:28:32;;;;;;;11.35;5.63;;;;;;;;;;5039562;28;20262;-80
2021/04/04 13:31:15;;;;;;;8.73;5.50;;;;;;;;;;5039842;28;20597;-80
2021/04/04 13:33:42;;;;;;;10.55;6.10;;;;;;;;;;5038491;28;20202;-80
2021/04/04 13:36:18;;;;;;;9.10;5.43;;;;;;;;;;5039774;28;20198;-80
2021/04/04 13:38:48;;;;;;;6.60;5.38;;;;;;;;;;5040159;28;20605;-81
2021/04/04 13:41:16;;;;;;;7.15;5.15;;;;;;;;;;5040326;28;20271;-80
2021/04/04 13:43:45;;;;;;;8.30;4.85;;;;;;;;;;5039764;28;20210;-79
2021/04/04 13:46:27;;;;;;;8.02;4.93;;;;;;;;;;5039819;28;20574;-80
2021/04/04 13:48:55;;;;;;;7.50;4.50;;;;;;;;;;5039934;28;20226;-81
2021/04/04 13:51:23;;;;;;;6.82;4.65;;;;;;;;;;5040407;28;20314;-80
2021/04/04 13:54:11;;;;;;;8.45;4.93;;;;;;;;;;5040483;28;20224;-81
2021/04/04 13:56:43;;;;;;;6.20;4.38;;;;;;;;;;5040424;28;20202;-80
2021/04/04 13:59:19;;;;;;;8.60;4.55;;;;;;;;;;5041217;28;20252;-81
2021/04/04 14:01:49;;;;;;;6.25;4.57;;;;;;;;;;5037859;28;20567;-81
2021/04/04 14:04:19;;;;;;;11.70;4.85;;;;;;;;;;5040467;28;20252;-81
2021/04/04 14:06:53;;;;;;;5.93;4.15;;;;;;;;;;5040599;28;20206;-81
2021/04/04 14:09:21;;;;;;;5.10;3.90;;;;;;;;;;5042233;28;20202;-80
2021/04/04 14:11:48;;;;;;;6.75;3.50;;;;;;;;;;5040965;28;20210;-79
2021/04/04 14:14:15;;;;;;;5.38;3.92;;;;;;;;;;5041093;28;20290;-80
2021/04/04 14:16:44;;;;;;;7.00;4.00;;;;;;;;;;5039740;28;20245;-80
2021/04/04 14:19:15;;;;;;;4.68;3.50;;;;;;;;;;5040263;28;20198;-80
2021/04/04 14:21:42;;;;;;;8.43;4.95;;;;;;;;;;5040200;28;20583;-81
2021/04/04 14:24:10;;;;;;;5.70;3.47;;;;;;;;;;5040205;28;20217;-80
2021/04/04 14:26:37;;;;;;;13.27;11.55;;;;;;;;;;5040742;28;20669;-80
2021/04/04 14:29:05;;;;;;;9.05;4.63;;;;;;;;;;5040835;28;20222;-80
2021/04/04 14:31:31;;;;;;;6.22;3.30;;;;;;;;;;5041170;28;20896;-79
2021/04/04 14:33:59;;;;;;;4.55;2.92;;;;;;;;;;5040317;28;20566;-80
2021/04/04 14:36:26;;;;;;;5.90;3.58;;;;;;;;;;5040949;28;20206;-81
2021/04/04 14:38:54;;;;;;;10.68;4.43;;;;;;;;;;5040556;28;20222;-80
2021/04/04 14:41:21;;;;;;;4.68;3.83;;;;;;;;;;5039381;28;20224;-79
2021/04/04 14:46:31;;;;;;;5.90;3.33;;;;;;;;;;5034928;28;20245;-80
2021/04/04 14:49:00;;;;;;;4.50;3.20;;;;;;;;;;5038623;28;20221;-80
2021/04/04 14:51:27;;;;;;;6.57;4.18;;;;;;;;;;5038308;28;20225;-80
2021/04/04 14:53:54;;;;;;;8.73;4.47;;;;;;;;;;5037281;28;20259;-78
2021/04/04 14:56:22;;;;;;;4.32;3.20;;;;;;;;;;5037452;28;20292;-80
2021/04/04 14:58:49;;;;;;;7.55;4.25;;;;;;;;;;5036494;28;20241;-81
2021/04/04 15:01:16;;;;;;;4.32;3.33;;;;;;;;;;5036823;28;20264;-78
2021/04/04 15:03:43;;;;;;;5.25;3.08;;;;;;;;;;5037341;28;20329;-79
2021/04/04 15:06:10;;;;;;;4.57;3.28;;;;;;;;;;5037152;28;20209;-80